createdAt,value
2018-02-05T00:00:05.811Z,20.55
2018-02-05T00:02:34.538Z,21.83
2018-02-05T00:05:03.266Z,22.05
2018-02-05T00:07:31.975Z,21.12
2018-02-05T00:10:00.686Z,19.55
2018-02-05T00:12:30.253Z,20.00
2018-02-05T00:14:59.007Z,21.48
2018-02-05T00:17:27.734Z,20.92
2018-02-05T00:19:56.557Z,20.75
2018-02-05T00:22:25.763Z,23.67
2018-02-05T00:24:54.493Z,21.45
2018-02-05T00:27:23.230Z,22.23
2018-02-05T00:29:52.395Z,20.80
2018-02-05T00:32:21.130Z,21.77
2018-02-05T00:34:49.830Z,23.70
2018-02-05T00:37:18.542Z,23.90
2018-02-05T00:39:47.257Z,24.52
2018-02-05T00:42:15.969Z,24.50
2018-02-05T00:44:45.470Z,24.30
2018-02-05T00:47:14.962Z,24.63
2018-02-05T00:49:43.695Z,25.20
2018-02-05T00:52:12.402Z,24.92
2018-02-05T00:54:41.127Z,24.27
2018-02-05T00:57:10.026Z,23.95
2018-02-05T00:59:39.515Z,23.95
2018-02-05T01:02:08.294Z,23.08
2018-02-05T01:04:37.009Z,25.25
2018-02-05T01:07:06.495Z,26.10
2018-02-05T01:09:35.202Z,25.45
2018-02-05T01:12:03.942Z,25.35
2018-02-05T01:14:32.649Z,26.10
2018-02-05T01:17:01.588Z,26.85
2018-02-05T01:19:31.066Z,26.25
2018-02-05T01:21:59.778Z,27.05
2018-02-05T01:24:29.344Z,24.50
2018-02-05T01:26:58.057Z,23.17
2018-02-05T01:29:26.830Z,22.15
2018-02-05T01:31:55.541Z,23.95
2018-02-05T01:34:25.052Z,24.40
2018-02-05T01:36:54.526Z,24.05
2018-02-05T01:39:23.255Z,26.05
2018-02-05T01:41:52.722Z,25.23
2018-02-05T01:44:21.458Z,24.30
2018-02-05T01:46:50.499Z,23.98
2018-02-05T01:49:19.206Z,24.83
2018-02-05T01:51:47.946Z,25.77
2018-02-05T01:54:16.674Z,23.55
2018-02-05T01:56:45.535Z,26.35
2018-02-05T01:59:14.237Z,23.87
2018-02-05T02:01:42.973Z,24.73
2018-02-05T02:04:12.481Z,25.17
2018-02-05T02:06:41.969Z,25.17
2018-02-05T02:09:10.919Z,24.25
2018-02-05T02:11:39.684Z,23.85
2018-02-05T02:14:08.411Z,24.40
2018-02-05T02:16:37.109Z,22.87
2018-02-05T02:19:05.834Z,22.67
2018-02-05T02:21:35.310Z,22.77
2018-02-05T02:24:03.741Z,24.40
2018-02-05T02:26:32.258Z,21.80
2018-02-05T02:29:00.999Z,23.38
2018-02-05T02:31:30.466Z,22.55
2018-02-05T02:34:05.929Z,23.48
2018-02-05T02:36:34.650Z,22.98
2018-02-05T02:39:03.613Z,25.05
2018-02-05T02:41:32.317Z,23.75
2018-02-05T02:44:01.790Z,25.20
2018-02-05T02:46:30.518Z,24.48
2018-02-05T02:48:59.999Z,22.83
2018-02-05T02:51:29.537Z,24.12
2018-02-05T02:53:58.327Z,25.55
2018-02-05T02:56:27.798Z,25.30
2018-02-05T02:58:56.521Z,24.12
2018-02-05T03:01:25.235Z,24.65
2018-02-05T03:03:53.953Z,24.98
2018-02-05T03:06:22.573Z,23.42
2018-02-05T03:08:52.062Z,24.40
2018-02-05T03:11:20.781Z,25.55
2018-02-05T03:13:49.573Z,24.40
2018-02-05T03:16:18.458Z,25.12
2018-02-05T03:18:47.914Z,26.33
2018-02-05T03:21:16.631Z,27.05
2018-02-05T03:23:46.129Z,27.55
2018-02-05T03:26:14.846Z,25.27
2018-02-05T03:28:43.738Z,26.05
2018-02-05T03:31:12.498Z,26.90
2018-02-05T03:33:41.207Z,26.12
2018-02-05T03:36:10.706Z,23.75
2018-02-05T03:38:40.198Z,25.40
2018-02-05T03:41:08.890Z,26.70
2018-02-05T03:43:38.373Z,23.38
2018-02-05T03:46:07.074Z,23.50
2018-02-05T03:48:36.561Z,25.52
2018-02-05T03:51:05.279Z,22.35
2018-02-05T03:53:34.770Z,23.62
2018-02-05T03:56:03.550Z,24.75
2018-02-05T03:58:32.291Z,23.27
2018-02-05T04:01:01.006Z,22.77
2018-02-05T04:03:29.701Z,23.95
2018-02-05T04:05:58.418Z,24.40
2018-02-05T04:08:27.131Z,22.30
2018-02-05T04:10:56.623Z,23.67
2018-02-05T04:13:26.098Z,21.40
2018-02-05T04:15:54.810Z,22.48
2018-02-05T04:18:24.298Z,22.75
2018-02-05T04:20:53.010Z,22.35
2018-02-05T04:23:22.530Z,21.80
2018-02-05T04:25:52.006Z,21.08
2018-02-05T04:30:55.723Z,23.80
2018-02-05T04:33:24.527Z,23.60
2018-02-05T04:35:53.241Z,23.35
2018-02-05T04:38:22.746Z,25.65
2018-02-05T04:40:52.218Z,25.05
2018-02-05T04:43:20.948Z,24.52
2018-02-05T04:45:49.653Z,22.58
2018-02-05T04:48:18.382Z,24.70
2018-02-05T04:50:47.098Z,23.08
2018-02-05T04:53:16.583Z,23.23
2018-02-05T04:55:45.294Z,22.15
2018-02-05T04:58:14.765Z,24.08
2018-02-05T05:00:43.554Z,23.67
2018-02-05T05:03:12.307Z,24.02
2018-02-05T05:05:41.170Z,25.75
2018-02-05T05:08:10.629Z,26.42
2018-02-05T05:10:39.373Z,22.65
2018-02-05T05:13:08.618Z,26.02
2018-02-05T05:15:37.337Z,23.90
2018-02-05T05:18:06.035Z,25.20
2018-02-05T05:20:35.548Z,27.37
2018-02-05T05:23:05.006Z,25.67
2018-02-05T05:25:33.702Z,27.73
2018-02-05T05:28:02.410Z,28.90
2018-02-05T05:30:31.129Z,26.20
2018-02-05T05:32:59.854Z,26.15
2018-02-05T05:35:28.645Z,24.35
2018-02-05T05:37:57.370Z,26.40
2018-02-05T05:40:26.834Z,27.08
2018-02-05T05:42:55.934Z,25.02
2018-02-05T05:45:24.401Z,26.90
2018-02-05T05:47:53.133Z,25.80
2018-02-05T05:50:21.846Z,28.95
2018-02-05T05:52:50.941Z,25.98
2018-02-05T05:55:20.444Z,28.58
2018-02-05T05:57:49.921Z,28.50
2018-02-05T06:00:18.644Z,28.23
2018-02-05T06:02:48.115Z,27.25
2018-02-05T06:05:16.826Z,24.73
2018-02-05T06:07:45.597Z,26.30
2018-02-05T06:10:14.317Z,25.65
2018-02-05T06:12:43.038Z,25.02
2018-02-05T06:15:11.781Z,26.75
2018-02-05T06:17:41.250Z,25.95
2018-02-05T06:20:09.955Z,26.90
2018-02-05T06:22:38.674Z,24.42
2018-02-05T06:25:08.169Z,25.92
2018-02-05T06:27:37.657Z,25.30
2018-02-05T06:30:06.373Z,27.30
2018-02-05T06:32:35.864Z,24.55
2018-02-05T06:35:04.232Z,25.80
2018-02-05T06:37:32.951Z,26.02
2018-02-05T06:40:02.416Z,25.40
2018-02-05T06:42:31.174Z,25.35
2018-02-05T06:44:59.889Z,24.75
2018-02-05T06:47:28.619Z,27.15
2018-02-05T06:49:57.352Z,24.30
2018-02-05T06:52:37.186Z,24.08
2018-02-05T06:55:17.121Z,26.40
2018-02-05T06:57:45.823Z,24.08
2018-02-05T07:00:14.935Z,23.92
2018-02-05T07:02:43.672Z,26.12
2018-02-05T07:05:13.162Z,25.17
2018-02-05T07:07:41.862Z,23.73
2018-02-05T07:10:11.346Z,24.08
2018-02-05T07:12:40.067Z,22.67
2018-02-05T07:15:08.779Z,24.25
2018-02-05T07:17:37.698Z,23.08
2018-02-05T07:20:05.738Z,23.50
2018-02-05T07:22:34.545Z,22.95
2018-02-05T07:25:03.279Z,24.85
2018-02-05T07:27:32.782Z,23.25
2018-02-05T07:30:02.282Z,24.25
2018-02-05T07:32:30.998Z,23.95
2018-02-05T07:34:59.890Z,24.08
2018-02-05T07:37:29.370Z,23.67
2018-02-05T07:39:57.906Z,24.48
2018-02-05T07:42:26.627Z,22.25
2018-02-05T07:44:55.490Z,24.85
2018-02-05T07:47:24.193Z,26.17
2018-02-05T07:49:52.934Z,24.02
2018-02-05T07:52:21.675Z,24.55
2018-02-05T07:54:50.374Z,23.75
2018-02-05T07:57:19.158Z,24.45
2018-02-05T07:59:47.538Z,25.37
2018-02-05T08:02:16.383Z,26.87
2018-02-05T08:04:45.082Z,27.00
2018-02-05T08:07:13.803Z,25.92
2018-02-05T08:09:42.529Z,27.20
2018-02-05T08:12:11.986Z,26.37
2018-02-05T08:14:40.752Z,24.83
2018-02-05T08:17:09.658Z,23.92
2018-02-05T08:19:38.487Z,25.00
2018-02-05T08:22:07.186Z,25.83
2018-02-05T08:24:36.758Z,24.30
2018-02-05T08:27:05.464Z,25.10
2018-02-05T08:29:34.190Z,25.42
2018-02-05T08:32:02.919Z,24.25
2018-02-05T08:34:31.634Z,24.73
2018-02-05T08:37:00.354Z,23.58
2018-02-05T08:39:29.073Z,22.13
2018-02-05T08:41:57.786Z,22.00
2018-02-05T08:44:26.935Z,18.48
2018-02-05T08:46:55.657Z,17.40
2018-02-05T08:49:24.362Z,17.40
2018-02-05T08:51:53.950Z,18.50
2018-02-05T08:54:22.661Z,18.83
2018-02-05T08:56:51.375Z,18.55
2018-02-05T08:59:20.846Z,17.90
2018-02-05T09:01:49.623Z,18.62
2018-02-05T09:04:18.330Z,19.15
2018-02-05T09:06:48.558Z,18.55
2018-02-05T09:09:17.263Z,18.02
2018-02-05T09:11:46.766Z,18.10
2018-02-05T09:14:16.935Z,18.10
2018-02-05T09:16:45.638Z,18.12
2018-02-05T09:19:14.357Z,18.52
2018-02-05T09:21:43.459Z,19.00
2018-02-05T09:24:12.170Z,17.23
2018-02-05T09:26:41.631Z,17.55
2018-02-05T09:29:10.357Z,18.27
2018-02-05T09:31:40.566Z,18.67
2018-02-05T09:34:09.277Z,18.98
2018-02-05T09:36:37.989Z,18.08
2018-02-05T09:39:06.737Z,17.77
2018-02-05T09:41:36.203Z,18.27
2018-02-05T09:44:04.919Z,18.80
2018-02-05T09:46:34.394Z,16.85
2018-02-05T09:49:03.121Z,16.00
2018-02-05T09:51:31.838Z,17.50
2018-02-05T09:54:00.646Z,18.00
2018-02-05T09:56:29.346Z,17.87
2018-02-05T09:58:58.127Z,16.25
2018-02-05T10:01:26.830Z,16.75
2018-02-05T10:03:55.567Z,17.80
2018-02-05T10:06:24.297Z,15.40
2018-02-05T10:08:53.005Z,15.45
2018-02-05T10:11:21.721Z,15.80
2018-02-05T10:13:51.206Z,15.80
2018-02-05T10:16:20.704Z,14.23
2018-02-05T10:18:49.439Z,15.48
2018-02-05T10:21:18.313Z,15.48
2018-02-05T10:23:47.809Z,15.50
2018-02-05T10:26:17.298Z,14.35
2018-02-05T10:28:46.017Z,14.95
2018-02-05T10:31:15.491Z,14.35
2018-02-05T10:33:44.342Z,14.27
2018-02-05T10:36:12.881Z,14.90
2018-02-05T10:38:42.505Z,12.18
2018-02-05T10:41:11.981Z,14.07
2018-02-05T10:43:40.685Z,14.60
2018-02-05T10:46:10.418Z,12.75
2018-02-05T10:48:40.143Z,11.77
2018-02-05T10:51:09.880Z,11.77
2018-02-05T10:53:39.613Z,12.50
2018-02-05T10:56:09.345Z,13.50
2018-02-05T10:58:39.070Z,12.02
2018-02-05T11:01:09.278Z,13.38
2018-02-05T11:03:39.006Z,13.20
2018-02-05T11:06:08.517Z,11.93
2018-02-05T11:08:37.256Z,12.63
2018-02-05T11:11:06.534Z,12.52
2018-02-05T11:13:35.270Z,12.25
2018-02-05T11:16:04.762Z,11.60
2018-02-05T11:18:35.038Z,12.25
2018-02-05T11:21:04.159Z,13.25
2018-02-05T11:23:32.866Z,13.35
2018-02-05T11:26:01.591Z,13.23
2018-02-05T11:28:31.334Z,12.45
2018-02-05T11:31:01.162Z,13.35
2018-02-05T11:33:30.949Z,11.98
2018-02-05T11:36:00.764Z,13.00
2018-02-05T11:38:29.494Z,12.65
2018-02-05T11:40:58.201Z,13.15
2018-02-05T11:43:28.065Z,13.32
2018-02-05T11:45:57.851Z,13.65
2018-02-05T11:48:27.589Z,13.02
2018-02-05T11:50:57.342Z,12.90
2018-02-05T11:53:27.085Z,13.30
2018-02-05T11:55:56.829Z,14.27
2018-02-05T11:58:26.557Z,11.52
2018-02-05T12:00:56.803Z,13.35
2018-02-05T12:03:26.337Z,12.27
2018-02-05T12:05:55.815Z,13.45
2018-02-05T12:08:24.948Z,12.88
2018-02-05T12:10:54.113Z,13.75
2018-02-05T12:13:24.017Z,13.45
2018-02-05T12:15:52.728Z,12.45
2018-02-05T12:18:21.870Z,12.90
2018-02-05T12:20:50.984Z,12.43
2018-02-05T12:23:19.836Z,14.07
2018-02-05T12:25:49.246Z,12.88
2018-02-05T12:28:18.106Z,12.30
2018-02-05T12:30:46.962Z,13.00
2018-02-05T12:33:15.814Z,12.00
2018-02-05T12:35:44.759Z,11.60
2018-02-05T12:38:13.947Z,13.70
2018-02-05T12:40:42.902Z,12.30
2018-02-05T12:43:11.748Z,12.80
2018-02-05T12:45:40.974Z,13.07
2018-02-05T12:48:09.811Z,13.43
2018-02-05T12:50:39.667Z,13.48
2018-02-05T12:53:07.930Z,12.67
2018-02-05T12:55:36.549Z,11.32
2018-02-05T12:58:04.913Z,12.33
2018-02-05T13:00:36.259Z,11.40
2018-02-05T13:03:14.822Z,11.77
2018-02-05T13:05:44.006Z,12.13
2018-02-05T13:08:12.430Z,11.33
2018-02-05T13:10:40.884Z,11.70
2018-02-05T13:13:09.830Z,11.90
2018-02-05T13:15:39.367Z,11.10
2018-02-05T13:18:08.846Z,10.40
2018-02-05T13:20:37.571Z,11.40
2018-02-05T13:23:06.866Z,11.77
2018-02-05T13:25:36.348Z,10.95
2018-02-05T13:28:05.075Z,9.77
2018-02-05T13:30:33.782Z,9.73
2018-02-05T13:33:02.177Z,10.18
2018-02-05T13:35:31.034Z,9.90
2018-02-05T13:37:59.746Z,10.55
2018-02-05T13:40:28.463Z,9.30
2018-02-05T13:42:57.989Z,10.15
2018-02-05T13:45:26.702Z,10.63
2018-02-05T13:47:55.445Z,10.60
2018-02-05T13:50:25.329Z,9.82
2018-02-05T13:52:54.770Z,10.53
2018-02-05T13:55:24.714Z,10.48
2018-02-05T13:57:54.423Z,10.35
2018-02-05T14:00:24.156Z,10.20
2018-02-05T14:02:53.970Z,10.10
2018-02-05T14:05:23.421Z,11.13
2018-02-05T14:07:53.132Z,11.12
2018-02-05T14:10:23.042Z,10.60
2018-02-05T14:12:52.496Z,10.20
2018-02-05T14:15:21.965Z,10.93
2018-02-05T14:17:51.424Z,11.13
2018-02-05T14:20:20.757Z,10.83
2018-02-05T14:22:50.246Z,10.10
2018-02-05T14:25:19.695Z,11.50
2018-02-05T14:27:49.219Z,12.27
2018-02-05T14:30:18.739Z,10.80
2018-02-05T14:32:47.585Z,12.20
2018-02-05T14:35:16.782Z,11.13
2018-02-05T14:37:46.017Z,10.30
2018-02-05T14:40:15.247Z,12.57
2018-02-05T14:42:44.710Z,11.90
2018-02-05T14:45:14.155Z,12.07
2018-02-05T14:47:43.634Z,11.87
2018-02-05T14:50:13.077Z,11.80
2018-02-05T14:52:42.539Z,11.00
2018-02-05T14:55:12.055Z,10.83
2018-02-05T14:57:41.509Z,11.70
2018-02-05T15:00:10.963Z,10.73
2018-02-05T15:02:40.418Z,11.90
2018-02-05T15:05:09.695Z,11.70
2018-02-05T15:07:39.280Z,11.17
2018-02-05T15:10:08.406Z,10.30
2018-02-05T15:12:37.865Z,10.37
2018-02-05T15:15:07.323Z,11.37
2018-02-05T15:17:36.782Z,10.80
2018-02-05T15:20:06.224Z,11.53
2018-02-05T15:22:36.215Z,12.25
2018-02-05T15:25:05.958Z,11.70
2018-02-05T15:27:35.394Z,11.90
2018-02-05T15:30:04.854Z,11.20
2018-02-05T15:32:33.973Z,11.63
2018-02-05T15:35:03.437Z,10.53
2018-02-05T15:37:32.875Z,10.30
2018-02-05T15:40:02.659Z,12.55
2018-02-05T15:42:32.378Z,11.30
2018-02-05T15:45:02.117Z,12.50
2018-02-05T15:47:31.843Z,11.48
2018-02-05T15:50:01.305Z,11.77
2018-02-05T15:52:31.017Z,11.15
2018-02-05T15:55:00.780Z,12.23
2018-02-05T15:57:30.493Z,11.70
2018-02-05T16:00:00.249Z,11.82
2018-02-05T16:02:29.979Z,11.15
2018-02-05T16:04:59.871Z,12.00
2018-02-05T16:07:29.580Z,12.27
2018-02-05T16:09:59.350Z,11.10
2018-02-05T16:12:29.086Z,11.90
2018-02-05T16:14:58.853Z,12.20
2018-02-05T16:17:28.668Z,11.27
2018-02-05T16:19:58.473Z,11.93
2018-02-05T16:22:28.225Z,12.35
2018-02-05T16:24:57.965Z,12.02
2018-02-05T16:27:27.726Z,12.65
2018-02-05T16:29:57.451Z,13.05
2018-02-05T16:32:27.202Z,14.23
2018-02-05T16:34:56.937Z,13.95
2018-02-05T16:37:26.709Z,12.65
2018-02-05T16:39:56.481Z,12.85
2018-02-05T16:42:26.259Z,12.40
2018-02-05T16:44:56.017Z,12.60
2018-02-05T16:47:25.757Z,13.43
2018-02-05T16:49:55.610Z,12.32
2018-02-05T16:52:25.341Z,13.48
2018-02-05T16:54:55.054Z,13.45
2018-02-05T16:57:24.802Z,16.20
2018-02-05T16:59:54.357Z,17.75
2018-02-05T17:02:24.101Z,16.00
2018-02-05T17:04:53.873Z,15.73
2018-02-05T17:07:23.606Z,15.20
2018-02-05T17:09:53.317Z,14.07
2018-02-05T17:12:23.058Z,13.05
2018-02-05T17:14:52.829Z,16.42
2018-02-05T17:17:22.665Z,13.95
2018-02-05T17:19:52.474Z,14.35
2018-02-05T17:22:22.458Z,15.25
2018-02-05T17:24:52.193Z,14.52
2018-02-05T17:27:21.949Z,13.45
2018-02-05T17:29:51.686Z,13.25
2018-02-05T17:32:21.415Z,13.80
2018-02-05T17:34:51.221Z,14.02
2018-02-05T17:37:20.935Z,13.88
2018-02-05T17:39:50.682Z,12.88
2018-02-05T17:42:20.426Z,13.30
2018-02-05T17:44:50.296Z,15.15
2018-02-05T17:47:20.057Z,14.20
2018-02-05T17:49:49.794Z,12.57
2018-02-05T17:52:19.525Z,13.62
2018-02-05T17:54:49.267Z,12.60
2018-02-05T17:57:18.985Z,12.10
2018-02-05T17:59:48.725Z,11.38
2018-02-05T18:02:18.515Z,11.00
2018-02-05T18:04:48.401Z,11.63
2018-02-05T18:07:18.168Z,10.65
2018-02-05T18:09:47.901Z,12.43
2018-02-05T18:12:17.722Z,11.77
2018-02-05T18:14:47.486Z,11.63
2018-02-05T18:17:17.205Z,12.48
2018-02-05T18:19:46.966Z,15.00
2018-02-05T18:22:16.895Z,12.73
2018-02-05T18:24:46.621Z,11.65
2018-02-05T18:27:16.350Z,14.32
2018-02-05T18:29:46.097Z,14.80
2018-02-05T18:32:15.889Z,13.00
2018-02-05T18:34:45.745Z,13.75
2018-02-05T18:37:15.550Z,13.00
2018-02-05T18:39:45.270Z,12.40
2018-02-05T18:42:15.025Z,11.85
2018-02-05T18:44:44.782Z,12.37
2018-02-05T18:47:14.551Z,11.75
2018-02-05T18:49:43.942Z,11.82
2018-02-05T18:52:13.673Z,13.82
2018-02-05T18:54:43.423Z,13.95
2018-02-05T18:57:13.178Z,13.15
2018-02-05T18:59:42.885Z,13.88
2018-02-05T19:02:18.261Z,13.20
2018-02-05T19:04:48.102Z,12.88
2018-02-05T19:07:17.855Z,12.90
2018-02-05T19:09:47.591Z,13.80
2018-02-05T19:12:17.318Z,12.43
2018-02-05T19:14:46.730Z,13.00
2018-02-05T19:17:16.518Z,13.00
2018-02-05T19:19:46.257Z,12.95
2018-02-05T19:22:15.980Z,13.15
2018-02-05T19:24:45.718Z,12.90
2018-02-05T19:27:15.441Z,13.50
2018-02-05T19:29:45.215Z,13.55
2018-02-05T19:32:15.035Z,12.90
2018-02-05T19:34:44.798Z,12.90
2018-02-05T19:37:14.523Z,13.45
2018-02-05T19:39:44.262Z,14.32
2018-02-05T19:42:13.989Z,13.07
2018-02-05T19:44:43.743Z,14.00
2018-02-05T19:47:13.499Z,12.27
2018-02-05T19:49:43.335Z,13.43
2018-02-05T19:52:13.155Z,13.82
2018-02-05T19:54:43.005Z,11.50
2018-02-05T19:57:12.725Z,15.85
2018-02-05T19:59:42.472Z,14.20
2018-02-05T20:02:12.219Z,13.10
2018-02-05T20:04:41.977Z,14.65
2018-02-05T20:07:11.689Z,15.27
2018-02-05T20:09:41.429Z,13.50
2018-02-05T20:12:11.154Z,13.60
2018-02-05T20:14:41.109Z,14.43
2018-02-05T20:17:10.868Z,13.45
2018-02-05T20:19:40.617Z,13.35
2018-02-05T20:22:10.338Z,13.70
2018-02-05T20:24:40.090Z,12.85
2018-02-05T20:27:10.091Z,13.15
2018-02-05T20:29:39.890Z,13.62
2018-02-05T20:32:09.644Z,14.10
2018-02-05T20:34:39.373Z,13.25
2018-02-05T20:37:09.122Z,13.48
2018-02-05T20:39:39.253Z,15.65
2018-02-05T20:42:09.003Z,13.82
2018-02-05T20:44:38.886Z,14.15
2018-02-05T20:47:08.617Z,14.05
2018-02-05T20:49:38.362Z,14.70
2018-02-05T20:52:08.110Z,14.50
2018-02-05T20:54:37.875Z,14.00
2018-02-05T20:57:07.597Z,13.50
2018-02-05T20:59:37.513Z,16.45
2018-02-05T21:02:07.277Z,13.95
2018-02-05T21:04:37.005Z,13.30
2018-02-05T21:07:06.723Z,14.85
2018-02-05T21:09:36.482Z,14.80
2018-02-05T21:12:06.221Z,15.15
2018-02-05T21:14:36.025Z,14.32
2018-02-05T21:17:05.529Z,14.05
2018-02-05T21:19:35.347Z,14.93
2018-02-05T21:22:05.069Z,13.38
2018-02-05T21:24:34.810Z,13.48
2018-02-05T21:27:04.554Z,14.35
2018-02-05T21:29:34.328Z,14.32
2018-02-05T21:32:04.080Z,14.75
2018-02-05T21:34:33.861Z,13.98
2018-02-05T21:37:03.610Z,14.38
2018-02-05T21:39:33.374Z,14.40
2018-02-05T21:42:03.130Z,15.93
2018-02-05T21:44:32.906Z,15.45
2018-02-05T21:47:02.809Z,15.38
2018-02-05T21:49:32.526Z,14.77
2018-02-05T21:52:02.247Z,15.20
2018-02-05T21:54:31.981Z,14.15
2018-02-05T21:57:01.709Z,15.98
2018-02-05T21:59:31.458Z,15.13
2018-02-05T22:02:01.205Z,14.27
2018-02-05T22:04:30.917Z,14.95
2018-02-05T22:07:00.662Z,14.35
2018-02-05T22:09:30.400Z,15.48
2018-02-05T22:12:00.141Z,14.68
2018-02-05T22:14:29.883Z,14.65
2018-02-05T22:16:59.606Z,14.38
2018-02-05T22:19:29.474Z,14.85
2018-02-05T22:21:59.257Z,15.73
2018-02-05T22:24:29.003Z,15.02
2018-02-05T22:26:58.729Z,15.05
2018-02-05T22:29:28.470Z,15.77
2018-02-05T22:31:58.178Z,15.25
2018-02-05T22:34:27.908Z,16.83
2018-02-05T22:36:57.638Z,15.05
2018-02-05T22:39:27.393Z,15.50
2018-02-05T22:41:57.129Z,13.95
2018-02-05T22:44:26.982Z,16.90
2018-02-05T22:46:56.717Z,16.33
2018-02-05T22:49:26.430Z,16.12
2018-02-05T22:51:56.140Z,16.25
2018-02-05T22:54:25.854Z,15.23
2018-02-05T22:56:55.590Z,16.33
2018-02-05T22:59:25.329Z,16.17
2018-02-05T23:01:55.058Z,17.75
2018-02-05T23:04:24.770Z,16.85
2018-02-05T23:06:54.500Z,16.98
2018-02-05T23:09:24.234Z,17.20
2018-02-05T23:11:53.945Z,17.62
2018-02-05T23:14:23.737Z,16.87
2018-02-05T23:16:53.584Z,17.27
2018-02-05T23:19:23.466Z,16.58
2018-02-05T23:21:52.833Z,17.55
2018-02-05T23:24:22.566Z,16.10
2018-02-05T23:26:52.282Z,15.70
2018-02-05T23:29:22.003Z,17.20
2018-02-05T23:31:51.726Z,18.27
2018-02-05T23:34:21.448Z,17.45
2018-02-05T23:36:51.210Z,18.30
2018-02-05T23:39:20.927Z,18.75
2018-02-05T23:41:50.656Z,17.65
2018-02-05T23:44:20.372Z,17.12
2018-02-05T23:46:50.114Z,18.27
2018-02-05T23:49:19.818Z,19.40
2018-02-05T23:51:49.530Z,16.73
2018-02-05T23:54:19.414Z,18.50
2018-02-05T23:56:49.126Z,20.10
2018-02-05T23:59:18.848Z,17.52
